• Join FlightAware (Why Join?)
  • Login
  • US Flag 
09:50PM EDT


 

Airport Tracker/Info


-or-


 

Live Flight TrackerFlight Track Log ✈ EJA929 ✈ 14-Aug-2013 ✈ KMSY - KTCL

Flight Track Log - Related Links

Times and Time Zones

All times are in EDT time to prevent confusion due to time zone crossing. See the EJA929 flight status page for this flight to view local times or setup timezone preferences in your user account.

Time Position Orientation Groundspeed Altitude Reporting Facility
EDT Latitude Longitude Course Direction KTS MPH feet Rate Location/Type
10:41AM 29.9956 -90.2794 248° West 165 190 600  Level Houston Center
10:42AM 29.9725 -90.3453 248° West 261 300 3,600 2,580 Climbing Houston Center
10:43AM 29.9369 -90.2608 116° Southeast 291 335 7,300 2,880 Climbing Houston Center
10:44AM 29.9356 -90.1464 91° East 299 344 10,600 2,040 Climbing Houston Center
10:45AM 29.9372 -90.0353 89° East 339 390 11,600 1,380 Climbing Houston Center
10:46AM 29.9639 -89.9197 75° East 372 428 13,500 1,560 Climbing Houston Center
10:47AM 29.9925 -89.8025 74° East 380 437 14,900 1,620 Climbing Houston Center
10:49AM 30.0275 -89.6592 74° East 390 449 16,900 1,620 Climbing Houston Center
10:50AM 30.0556 -89.5389 75° East 393 452 18,300 1,260 Climbing Houston Center
10:51AM 30.0864 -89.4189 73° East 394 453 19,600 1,260 Climbing Houston Center
10:52AM 30.1642 -89.3289 45° Northeast 396 456 21,000 1,140 Climbing Houston Center
10:53AM 30.2458 -89.2431 42° Northeast 399 459 22,000 960 Climbing Houston Center
10:54AM 30.3458 -89.1369 42° Northeast 408 470 23,000 480 Climbing Houston Center
10:55AM 30.4439 -89.0572 35° Northeast 430 495 23,000  Level Houston Center
10:56AM 30.5550 -88.9992 24° Northeast 443 510 23,000  Level Houston Center
10:57AM 30.6681 -88.9442 23° Northeast 443 510 23,000  Level Houston Center
10:58AM 30.7978 -88.8769 24° Northeast 439 505 23,000  Level Houston Center
10:59AM 30.9056 -88.8225 23° Northeast 425 489 23,000  Level Houston Center
11:00AM 31.0167 -88.7661 24° Northeast 430 495 23,000  Level Houston Center
11:01AM 31.1339 -88.7261 16° North 449 517 23,000  Level Houston Center
11:02AM 31.2575 -88.7300 358° North 449 517 23,000  Level Houston Center
11:03AM 31.3811 -88.7500 352° North 446 513 23,000  Level Houston Center
11:04AM 31.5050 -88.7711 352° North 448 516 23,000  Level Houston Center
11:05AM 31.6525 -88.7947 352° North 447 514 23,000  Level Houston Center
11:06AM 31.7772 -88.8156 352° North 452 520 23,000  Level Houston Center
11:07AM 31.8794 -88.8136 North 444 511 23,000  Level Memphis Center
11:08AM 32.0122 -88.7453 24° Northeast 453 521 23,000 -300 Level Memphis Center
11:09AM 32.1133 -88.6650 34° Northeast 441 507 22,400 -1,080 Descending Memphis Center
11:10AM 32.2083 -88.5797 37° Northeast 429 494 20,900 -1,500 Descending Memphis Center
11:11AM 32.2803 -88.5069 41° Northeast 406 467 19,500 -1,500 Descending Memphis Center
11:12AM 32.3647 -88.4317 37° Northeast 385 443 18,000 -1,440 Descending Memphis Center
11:13AM 32.4489 -88.3508 39° Northeast 385 443 16,700 -1,440 Descending Memphis Center
11:14AM 32.5353 -88.2703 38° Northeast 385 443 15,200 -1,500 Descending Memphis Center
11:15AM 32.6133 -88.1944 39° Northeast 379 436 13,700 -1,500 Descending Memphis Center
11:16AM 32.6894 -88.1233 38° Northeast 363 418 12,200 -1,680 Descending Memphis Center
11:17AM 32.7592 -88.0622 36° Northeast 333 383 10,400 -1,800 Descending Memphis Center
11:18AM 32.8228 -87.9964 41° Northeast 309 356 8,700 -1,740 Descending Memphis Center
11:19AM 32.8883 -87.9378 37° Northeast 296 341 7,000 -1,980 Descending Memphis Center
11:20AM 32.9517 -87.8717 41° Northeast 286 329 4,800 -1,500 Descending Memphis Center
11:21AM 32.9989 -87.8233 41° Northeast 256 295 4,000 -420 Descending Memphis Center
11:22AM 33.0358 -87.7900 37° Northeast 203 234 4,000  Level Memphis Center
11:23AM 33.0747 -87.7542 38° Northeast 174 200 4,000  Level Memphis Center
11:24AM 33.0883 -87.7117 69° East 138 159 4,100 -120 Climbing Memphis Center
11:25AM 33.0450 -87.7353 205° Southwest 60 69 3,800 -600 Descending Memphis Center
11:26AM 33.0147 -87.7881 236° Southwest 131 151 3,000 -420 Descending Memphis Center
11:27AM 32.9858 -87.8014 201° Southwest 131 151 3,000  Level Memphis Center
11:28AM 33.0789 -87.7567 22° Northeast 441 507 3,100  Climbing Memphis Center
11:29AM 33.1461 -87.6800 44° Northeast 383 441 3,000 -600 Descending Memphis Center
11:31AM 33.1625 -87.6692 29° Northeast 116 133 1,300 -600 Descending Atlanta Center
11:32AM 33.1733 -87.6597 36° Northeast 116 133 1,300  Level Atlanta Center
11:34AM 33.1733 -87.6597 331° Northwest 116 133 1,300  Level Atlanta Center